Time;durP1;ratioP1;P1;durP2;ratioP2;P2;SDS_P1;SDS_P2;PMS_P1;PMS_P2;Temp;Humidity;BMP_temperature;BMP_pressure;BME280_temperature;BME280_humidity;BME280_pressure;Samples;Min_cycle;Max_cycle;Signal;HPM_P1;HPM_P2
2021/04/29 00:06:25;;;;;;;11.35;6.25;;;13.20;57.90;;;;;;5015679;28;20026;-84
2021/04/29 00:26:07;;;;;;;11.68;6.60;;;13.10;59.30;;;;;;5021473;28;20093;-86
2021/04/29 04:29:08;;;;;;;13.63;9.43;;;10.70;80.20;;;;;;5017289;28;20120;-85
2021/04/29 04:31:33;;;;;;;15.93;9.43;;;10.70;81.00;;;;;;4981137;28;20046;-86
2021/04/29 04:33:59;;;;;;;13.20;9.35;;;10.70;81.90;;;;;;5013396;28;20076;-86
2021/04/29 04:36:25;;;;;;;15.13;9.77;;;10.70;82.00;;;;;;4995693;28;20025;-87
2021/04/29 04:38:50;;;;;;;13.32;10.00;;;10.70;82.70;;;;;;4979358;28;20042;-86
2021/04/29 04:41:16;;;;;;;17.10;10.10;;;10.60;82.30;;;;;;4995493;28;20036;-87
2021/04/29 04:43:41;;;;;;;14.35;9.43;;;10.60;82.20;;;;;;4979780;28;20026;-87
2021/04/29 04:46:07;;;;;;;14.10;9.98;;;10.60;82.60;;;;;;4995516;28;20081;-93
2021/04/29 04:48:33;;;;;;;13.88;10.07;;;10.60;82.90;;;;;;4986263;28;20026;-87
2021/04/29 04:50:58;;;;;;;16.65;10.25;;;10.60;83.20;;;;;;4995684;28;20048;-87
2021/04/29 04:53:24;;;;;;;14.40;10.40;;;10.50;83.40;;;;;;5008065;28;20054;-87
2021/04/29 04:55:51;;;;;;;14.98;10.60;;;10.50;83.50;;;;;;4992692;28;20042;-86
2021/04/29 04:58:17;;;;;;;16.75;10.77;;;10.50;83.80;;;;;;4991527;28;20467;-87
2021/04/29 05:00:43;;;;;;;15.77;10.77;;;10.50;83.00;;;;;;4995717;28;20080;-86
2021/04/29 05:03:13;;;;;;;15.63;10.30;;;10.40;82.60;;;;;;4979150;28;20022;-86
2021/04/29 05:05:40;;;;;;;15.52;11.02;;;10.40;82.40;;;;;;4992633;28;20054;-87
2021/04/29 05:08:06;;;;;;;13.68;10.10;;;10.30;82.60;;;;;;5017447;28;20022;-86
2021/04/29 05:10:33;;;;;;;14.50;11.07;;;10.30;82.50;;;;;;4980880;28;20501;-87
2021/04/29 05:13:01;;;;;;;14.82;10.18;;;10.20;83.20;;;;;;5006211;28;20018;-86
2021/04/29 05:15:31;;;;;;;15.10;10.45;;;10.10;84.60;;;;;;4995817;28;20015;-87
2021/04/29 05:17:57;;;;;;;15.77;10.77;;;10.10;84.80;;;;;;5011695;28;20034;-86
2021/04/29 05:20:23;;;;;;;15.82;11.43;;;10.10;85.10;;;;;;4995488;28;20115;-87
2021/04/29 05:22:50;;;;;;;15.73;11.18;;;10.10;85.90;;;;;;5013042;28;20045;-89
2021/04/29 05:25:16;;;;;;;14.43;11.10;;;10.10;86.20;;;;;;4986620;28;20038;-87
2021/04/29 05:27:41;;;;;;;15.45;11.25;;;10.10;86.40;;;;;;5018197;28;20045;-88
2021/04/29 05:30:08;;;;;;;15.80;11.05;;;10.20;86.20;;;;;;4987196;28;20042;-87
2021/04/29 05:32:39;;;;;;;15.38;11.13;;;10.10;86.60;;;;;;4989551;28;20030;-86
2021/04/29 05:35:05;;;;;;;16.77;11.82;;;10.20;87.00;;;;;;4995356;28;20132;-87
2021/04/29 05:37:31;;;;;;;14.30;11.48;;;10.20;87.00;;;;;;4994911;28;20498;-88
2021/04/29 05:39:56;;;;;;;16.70;12.35;;;10.20;87.10;;;;;;4979133;28;20032;-87
2021/04/29 05:42:22;;;;;;;15.25;11.48;;;10.20;87.30;;;;;;4978796;28;20413;-86
2021/04/29 05:44:49;;;;;;;16.35;12.27;;;10.30;87.50;;;;;;5012280;28;20022;-86
2021/04/29 05:47:17;;;;;;;19.67;12.95;;;10.20;87.60;;;;;;4995298;28;20082;-86
2021/04/29 05:49:43;;;;;;;16.52;12.90;;;10.30;88.00;;;;;;4994743;28;20030;-86
2021/04/29 05:52:12;;;;;;;17.65;13.93;;;10.30;88.10;;;;;;4995368;28;20018;-86
2021/04/29 05:54:38;;;;;;;20.67;13.35;;;10.30;88.50;;;;;;5012651;28;20345;-87
2021/04/29 05:57:05;;;;;;;19.40;13.13;;;10.30;89.00;;;;;;4996951;28;20040;-86
2021/04/29 05:59:31;;;;;;;17.42;13.32;;;10.30;89.30;;;;;;4981565;28;20027;-86
2021/04/29 06:01:59;;;;;;;16.20;13.15;;;10.40;89.80;;;;;;4979149;28;20484;-84
2021/04/29 06:04:25;;;;;;;18.65;13.18;;;10.40;89.20;;;;;;4995544;28;20124;-86
2021/04/29 06:06:51;;;;;;;15.18;12.18;;;10.40;89.00;;;;;;4995303;28;20026;-90
2021/04/29 06:09:17;;;;;;;18.20;13.57;;;10.40;89.00;;;;;;4995238;28;20026;-86
2021/04/29 06:11:43;;;;;;;18.00;13.07;;;10.40;89.20;;;;;;4994349;28;20375;-85
2021/04/29 06:14:12;;;;;;;17.33;13.00;;;10.40;89.00;;;;;;4979979;28;20022;-87
2021/04/29 06:16:41;;;;;;;16.98;13.07;;;10.40;89.20;;;;;;5016278;28;20057;-86
2021/04/29 06:19:08;;;;;;;17.83;13.23;;;10.40;89.50;;;;;;4979475;28;20034;-87
2021/04/29 06:21:34;;;;;;;18.27;13.57;;;10.40;89.80;;;;;;4983319;28;20041;-88
2021/04/29 06:24:01;;;;;;;15.82;12.30;;;10.40;89.60;;;;;;4983066;28;20097;-87
2021/04/29 06:26:27;;;;;;;17.95;13.63;;;10.50;89.80;;;;;;4999650;28;20489;-87
2021/04/29 06:29:33;;;;;;;17.80;13.55;;;10.50;90.00;;;;;;5013860;28;20058;-86
2021/04/29 06:32:00;;;;;;;19.83;13.60;;;10.50;90.30;;;;;;4999533;28;20076;-86
2021/04/29 06:34:25;;;;;;;20.05;14.27;;;10.50;90.20;;;;;;5000206;28;20037;-87
2021/04/29 06:36:51;;;;;;;17.98;13.70;;;10.50;90.30;;;;;;4982358;28;20026;-87
2021/04/29 06:39:19;;;;;;;18.00;13.50;;;10.60;90.40;;;;;;4979562;28;20030;-85
2021/04/29 06:41:45;;;;;;;17.13;13.80;;;10.60;90.30;;;;;;4981183;28;20038;-86
2021/04/29 06:44:15;;;;;;;17.20;13.73;;;10.60;90.30;;;;;;4980874;28;20026;-86
2021/04/29 06:46:42;;;;;;;17.15;13.13;;;10.60;90.30;;;;;;4980149;28;20096;-86
2021/04/29 06:53:07;;;;;;;17.75;13.65;;;10.70;90.60;;;;;;4997522;28;20130;-86
2021/04/29 06:59:45;;;;;;;18.45;13.18;;;10.80;90.70;;;;;;5001787;28;20109;-86
2021/04/29 07:08:59;;;;;;;18.20;13.77;;;10.80;90.80;;;;;;4996826;28;20030;-86
2021/04/29 07:25:20;;;;;;;19.95;14.10;;;10.80;90.30;;;;;;4996686;28;20034;-85
2021/04/29 07:27:48;;;;;;;17.63;13.35;;;10.80;90.50;;;;;;4979569;28;20034;-85
2021/04/29 07:30:14;;;;;;;15.80;12.95;;;10.80;90.70;;;;;;4995291;28;20252;-85
2021/04/29 07:32:46;;;;;;;17.25;13.00;;;10.80;90.70;;;;;;4979589;28;20045;-85
2021/04/29 07:38:40;;;;;;;17.50;13.10;;;10.80;90.80;;;;;;4996545;28;20618;-85
2021/04/29 07:44:27;;;;;;;17.25;12.68;;;10.90;90.70;;;;;;4996064;28;20494;-75
2021/04/29 07:46:53;;;;;;;15.68;13.50;;;10.90;90.80;;;;;;4975680;28;20030;-75
2021/04/29 07:49:19;;;;;;;17.25;12.65;;;10.90;91.00;;;;;;4975431;28;20459;-74
2021/04/29 07:51:45;;;;;;;17.85;13.32;;;10.90;90.60;;;;;;4992912;28;20113;-85
2021/04/29 07:54:14;;;;;;;18.88;12.98;;;11.00;90.70;;;;;;4996661;28;20447;-85
2021/04/29 07:56:40;;;;;;;16.33;12.38;;;11.00;90.70;;;;;;4978722;28;20030;-85
2021/04/29 07:59:06;;;;;;;18.27;13.48;;;11.00;90.60;;;;;;4978663;28;20021;-85
2021/04/29 08:01:31;;;;;;;16.42;13.30;;;11.00;90.70;;;;;;4979270;28;20034;-85
2021/04/29 08:04:01;;;;;;;16.15;12.60;;;11.00;90.80;;;;;;4979965;28;20452;-86
2021/04/29 08:06:27;;;;;;;17.48;12.65;;;11.00;90.60;;;;;;4967567;28;20430;-85
2021/04/29 08:08:52;;;;;;;17.67;13.00;;;11.00;90.40;;;;;;4981692;28;20030;-85
2021/04/29 08:11:19;;;;;;;15.20;12.40;;;11.00;90.20;;;;;;4966613;28;20084;-85
2021/04/29 08:13:45;;;;;;;19.08;13.88;;;11.00;90.30;;;;;;4965943;28;20057;-86
2021/04/29 08:16:10;;;;;;;18.38;14.23;;;10.90;90.10;;;;;;4965228;28;20030;-84
2021/04/29 08:18:39;;;;;;;16.40;12.70;;;10.90;90.10;;;;;;4966039;28;20026;-85
2021/04/29 08:21:08;;;;;;;18.45;12.88;;;10.80;90.10;;;;;;4997999;28;20019;-87
2021/04/29 08:23:37;;;;;;;15.93;12.82;;;10.80;90.30;;;;;;4998145;28;20485;-86
2021/04/29 08:26:04;;;;;;;16.20;12.63;;;10.80;90.30;;;;;;4997565;28;20026;-86
2021/04/29 08:28:47;;;;;;;16.05;12.63;;;10.80;90.50;;;;;;4998543;28;20032;-86
2021/04/29 08:31:31;;;;;;;14.52;11.68;;;10.80;90.30;;;;;;4979437;28;20069;-85
2021/04/29 08:33:57;;;;;;;17.88;11.93;;;10.80;90.40;;;;;;4957603;28;20030;-86
2021/04/29 08:36:23;;;;;;;15.90;12.75;;;10.80;90.40;;;;;;4960414;28;20034;-85
2021/04/29 08:38:48;;;;;;;18.02;13.80;;;10.80;90.40;;;;;;4961219;28;20038;-86
2021/04/29 08:41:14;;;;;;;16.27;12.68;;;10.80;90.50;;;;;;4960497;28;20097;-90
2021/04/29 08:43:40;;;;;;;14.75;11.95;;;10.80;90.30;;;;;;4958497;28;20588;-87
2021/04/29 08:46:06;;;;;;;15.60;12.23;;;10.80;90.20;;;;;;4960642;28;20539;-86
2021/04/29 08:48:32;;;;;;;17.05;13.02;;;10.80;90.40;;;;;;4958134;28;20037;-85
2021/04/29 08:51:01;;;;;;;16.40;13.15;;;10.80;90.40;;;;;;4943234;28;20122;-85
2021/04/29 08:53:30;;;;;;;15.13;12.38;;;10.90;90.50;;;;;;4975142;28;20054;-85
2021/04/29 08:56:20;;;;;;;16.27;11.88;;;10.90;90.40;;;;;;4943146;28;20097;-85
2021/04/29 09:02:01;;;;;;;17.27;13.13;;;10.90;90.50;;;;;;4935387;29;20097;-85
2021/04/29 09:04:38;;;;;;;16.42;13.27;;;11.00;90.50;;;;;;4918430;29;20090;-85
2021/04/29 09:07:33;;;;;;;15.05;12.30;;;11.00;90.60;;;;;;4952927;28;20034;-84
2021/04/29 09:10:01;;;;;;;16.15;13.38;;;11.00;90.70;;;;;;4923822;28;20128;-85
2021/04/29 09:12:43;;;;;;;18.17;12.55;;;11.00;90.50;;;;;;4959170;28;20084;-85
2021/04/29 09:15:40;;;;;;;16.13;13.15;;;11.00;90.40;;;;;;4954699;29;20031;-84
2021/04/29 09:18:12;;;;;;;19.23;13.95;;;11.00;90.60;;;;;;4938587;29;20587;-87
2021/04/29 09:20:49;;;;;;;16.90;13.23;;;11.00;90.50;;;;;;4938411;29;20039;-85
2021/04/29 09:23:18;;;;;;;19.58;13.30;;;11.10;90.40;;;;;;4918751;29;20031;-84
2021/04/29 09:26:01;;;;;;;17.38;13.32;;;11.10;90.40;;;;;;4932168;29;20032;-86
2021/04/29 09:28:37;;;;;;;17.33;12.57;;;11.00;90.30;;;;;;4951293;29;20107;-84
2021/04/29 09:31:06;;;;;;;14.82;12.45;;;11.00;90.40;;;;;;4936842;29;20163;-85
2021/04/29 09:33:34;;;;;;;15.80;12.52;;;11.00;90.50;;;;;;4953680;28;20083;-87
2021/04/29 09:36:00;;;;;;;17.35;12.27;;;11.00;90.70;;;;;;4960599;28;20159;-86
2021/04/29 09:38:39;;;;;;;18.10;12.38;;;11.00;90.50;;;;;;4970339;28;20104;-86
2021/04/29 09:41:07;;;;;;;15.90;11.77;;;11.00;90.50;;;;;;4953657;28;20042;-86
2021/04/29 09:43:34;;;;;;;16.02;13.32;;;11.10;90.60;;;;;;4953392;29;20873;-86
2021/04/29 09:46:04;;;;;;;16.42;13.38;;;11.00;90.50;;;;;;4963788;28;20135;-90
2021/04/29 09:48:58;;;;;;;16.60;12.60;;;11.00;90.40;;;;;;4957739;28;20027;-87
2021/04/29 09:51:35;;;;;;;15.77;12.77;;;11.00;90.30;;;;;;4956643;28;20558;-86
2021/04/29 09:54:01;;;;;;;17.17;12.43;;;11.00;90.50;;;;;;4999653;28;20030;-86
2021/04/29 09:56:27;;;;;;;15.55;12.35;;;11.00;90.60;;;;;;4998930;28;20018;-85
2021/04/29 09:58:57;;;;;;;16.05;12.45;;;11.00;90.60;;;;;;4979316;28;20176;-85
2021/04/29 10:01:27;;;;;;;16.48;12.35;;;11.00;90.60;;;;;;4996130;28;20022;-85
2021/04/29 10:03:56;;;;;;;15.98;12.70;;;11.00;90.80;;;;;;4995981;28;20117;-85
2021/04/29 10:06:22;;;;;;;17.23;12.73;;;11.00;90.90;;;;;;5007720;28;20087;-86
2021/04/29 10:08:50;;;;;;;18.15;13.05;;;11.00;90.80;;;;;;5007721;28;20026;-85
2021/04/29 10:11:22;;;;;;;17.05;12.02;;;11.00;90.80;;;;;;5007894;28;20035;-85
2021/04/29 10:13:53;;;;;;;14.85;12.40;;;11.00;90.90;;;;;;4999067;28;20104;-85
2021/04/29 10:16:22;;;;;;;17.88;12.77;;;11.00;90.90;;;;;;4993838;28;20538;-85
2021/04/29 10:18:49;;;;;;;17.38;12.15;;;11.00;90.80;;;;;;4998478;28;20025;-84
2021/04/29 10:21:18;;;;;;;17.00;12.15;;;11.10;90.70;;;;;;4999364;28;20030;-84
2021/04/29 10:23:46;;;;;;;13.98;11.68;;;11.00;90.60;;;;;;4999290;28;20113;-84
2021/04/29 10:26:22;;;;;;;17.38;12.60;;;11.00;90.70;;;;;;4998561;28;20499;-89
2021/04/29 10:28:56;;;;;;;18.63;13.63;;;11.00;90.70;;;;;;4998437;28;20057;-86
2021/04/29 10:31:33;;;;;;;17.90;13.00;;;11.00;91.30;;;;;;4998577;28;20034;-84
2021/04/29 10:34:02;;;;;;;15.85;12.77;;;11.00;91.40;;;;;;4998518;28;20482;-85
2021/04/29 10:36:40;;;;;;;20.77;13.82;;;11.10;91.10;;;;;;4997798;28;20037;-85
2021/04/29 10:39:11;;;;;;;20.52;12.32;;;11.00;90.90;;;;;;4998100;28;20390;-84
2021/04/29 10:41:37;;;;;;;;;;;11.00;90.80;;;;;;4998134;28;20181;-85
2021/04/29 10:44:09;;;;;;;17.65;12.75;;;11.00;90.90;;;;;;5014827;28;19988;-86
2021/04/29 10:46:38;;;;;;;17.40;12.32;;;10.90;90.80;;;;;;4983096;28;20022;-84
2021/04/29 10:49:04;;;;;;;15.68;12.32;;;10.90;90.90;;;;;;5009949;28;20116;-85
2021/04/29 10:51:45;;;;;;;15.82;12.43;;;10.90;91.00;;;;;;4991203;28;20125;-85
2021/04/29 10:54:11;;;;;;;15.38;12.02;;;10.90;91.10;;;;;;5028521;28;20030;-86
2021/04/29 10:56:37;;;;;;;19.15;11.63;;;10.90;91.00;;;;;;5015851;28;20482;-85
2021/04/29 10:59:12;;;;;;;17.58;12.68;;;10.90;91.20;;;;;;4981735;28;20037;-85
2021/04/29 11:04:39;;;;;;;13.63;11.38;;;10.90;91.60;;;;;;5016218;28;20543;-84
2021/04/29 11:07:10;;;;;;;13.65;10.82;;;10.90;91.80;;;;;;4997761;28;20060;-84
2021/04/29 11:09:35;;;;;;;15.57;9.75;;;10.80;91.50;;;;;;4998606;28;20022;-84
2021/04/29 11:12:04;;;;;;;13.20;9.80;;;10.70;91.50;;;;;;4998554;28;20041;-84
2021/04/29 11:14:44;;;;;;;13.95;9.50;;;10.70;91.60;;;;;;4998040;28;20053;-85
2021/04/29 11:17:34;;;;;;;10.30;8.83;;;10.60;91.80;;;;;;4998499;28;20401;-85
2021/04/29 11:20:00;;;;;;;10.25;8.25;;;10.60;92.20;;;;;;4981958;28;20117;-84
2021/04/29 11:22:34;;;;;;;11.38;8.80;;;10.60;92.70;;;;;;4996288;28;20120;-85
2021/04/29 11:25:01;;;;;;;10.32;8.07;;;10.70;93.00;;;;;;4983844;28;20025;-85
2021/04/29 11:27:33;;;;;;;9.98;8.25;;;10.70;92.60;;;;;;4988171;28;20459;-84
2021/04/29 11:30:06;;;;;;;10.93;8.52;;;10.70;92.40;;;;;;4973180;28;20041;-85
2021/04/29 11:32:34;;;;;;;9.40;7.28;;;10.70;92.70;;;;;;5001483;28;20482;-85
2021/04/29 11:35:05;;;;;;;9.60;7.82;;;10.70;92.70;;;;;;5000507;28;20032;-86
2021/04/29 11:37:42;;;;;;;9.77;8.10;;;10.70;92.80;;;;;;5007376;28;20130;-85
2021/04/29 11:40:08;;;;;;;11.80;8.85;;;10.70;92.90;;;;;;4981973;28;20382;-85
2021/04/29 11:42:34;;;;;;;11.88;9.60;;;10.70;93.00;;;;;;4998325;28;20045;-85
2021/04/29 11:45:18;;;;;;;11.15;9.40;;;10.60;93.10;;;;;;4981153;28;20466;-86
2021/04/29 11:48:02;;;;;;;13.30;10.63;;;10.60;93.00;;;;;;5013529;28;20109;-86
2021/04/29 11:50:30;;;;;;;11.75;9.60;;;10.60;92.90;;;;;;4996771;28;20145;-85
2021/04/29 11:53:26;;;;;;;12.25;9.55;;;10.60;93.00;;;;;;4997543;28;20382;-85
2021/04/29 11:56:05;;;;;;;12.35;9.90;;;10.50;93.10;;;;;;5013798;28;20049;-87
2021/04/29 11:58:31;;;;;;;12.23;9.60;;;10.50;93.30;;;;;;5002975;28;20022;-85
2021/04/29 12:00:57;;;;;;;12.68;9.80;;;10.50;93.30;;;;;;4982711;28;20029;-86
2021/04/29 12:03:25;;;;;;;14.35;10.50;;;10.50;93.30;;;;;;4964829;28;20026;-85
2021/04/29 12:05:58;;;;;;;12.15;10.00;;;10.50;93.00;;;;;;4991953;28;20489;-89
2021/04/29 12:08:34;;;;;;;10.82;9.25;;;10.40;92.80;;;;;;4990010;28;20071;-85
2021/04/29 12:11:07;;;;;;;13.52;9.75;;;10.30;92.70;;;;;;4996909;28;20418;-85
2021/04/29 12:13:35;;;;;;;13.57;9.73;;;10.30;92.70;;;;;;4984373;28;20060;-86
2021/04/29 12:19:35;;;;;;;12.15;8.93;;;10.30;93.10;;;;;;4974633;28;20118;-86
2021/04/29 12:22:03;;;;;;;11.57;9.20;;;10.30;93.10;;;;;;4943454;28;20038;-86
2021/04/29 12:24:50;;;;;;;11.07;9.27;;;10.30;93.20;;;;;;4984186;28;20045;-87
2021/04/29 12:27:21;;;;;;;12.75;9.93;;;10.30;93.40;;;;;;4995853;28;20018;-86
2021/04/29 12:30:06;;;;;;;14.20;10.27;;;10.20;92.90;;;;;;4996541;28;20018;-86
2021/04/29 12:32:46;;;;;;;12.90;8.98;;;10.20;92.60;;;;;;4977915;28;20084;-86
2021/04/29 12:35:37;;;;;;;11.40;9.60;;;10.00;92.60;;;;;;4994520;28;20035;-87
2021/04/29 12:38:03;;;;;;;14.32;9.05;;;9.90;92.30;;;;;;4992238;28;20029;-87
2021/04/29 12:40:31;;;;;;;12.35;9.18;;;9.90;92.70;;;;;;4975031;28;20078;-86
2021/04/29 12:43:18;;;;;;;13.98;10.02;;;9.90;92.90;;;;;;4996457;28;20022;-92
2021/04/29 12:46:11;;;;;;;12.73;9.13;;;9.90;93.10;;;;;;4968592;28;20038;-91
2021/04/29 12:48:42;;;;;;;14.30;9.43;;;9.80;92.90;;;;;;4997487;28;20084;-88
2021/04/29 12:54:35;;;;;;;13.25;8.95;;;9.70;92.90;;;;;;5014396;28;20021;-93
2021/04/29 13:00:10;;;;;;;13.23;9.48;;;9.70;92.40;;;;;;4996238;28;20104;-90
2021/04/29 13:06:09;;;;;;;11.73;8.13;;;9.70;92.80;;;;;;4995296;28;20033;-90
2021/04/29 13:12:15;;;;;;;10.90;7.97;;;9.70;92.30;;;;;;4995011;28;20037;-90
2021/04/29 13:18:10;;;;;;;13.30;8.15;;;9.60;92.30;;;;;;4995544;28;20033;-91
2021/04/29 13:20:39;;;;;;;9.68;7.45;;;9.60;92.40;;;;;;4983081;28;20045;-94
2021/04/29 13:30:04;;;;;;;11.25;7.63;;;9.50;92.00;;;;;;4979497;28;20027;-95
2021/04/29 13:35:52;;;;;;;11.35;6.55;;;9.50;92.20;;;;;;4978450;28;20077;-90
2021/04/29 13:39:12;;;;;;;10.73;7.70;;;9.40;92.00;;;;;;4962237;28;20047;-88
2021/04/29 13:45:05;;;;;;;12.73;8.63;;;9.40;92.10;;;;;;4977347;28;20070;-91
2021/04/29 13:50:45;;;;;;;14.80;8.77;;;9.40;91.80;;;;;;4921801;29;20395;-88
2021/04/29 13:53:12;;;;;;;13.07;8.23;;;9.40;92.00;;;;;;4959470;28;20047;-88
2021/04/29 13:55:37;;;;;;;10.32;8.30;;;9.40;91.40;;;;;;4979951;28;20031;-89
2021/04/29 13:58:07;;;;;;;12.65;8.18;;;9.40;91.40;;;;;;5000813;28;20108;-90
2021/04/29 14:03:45;;;;;;;11.30;7.88;;;9.40;91.00;;;;;;5017714;28;20501;-90
2021/04/29 14:09:24;;;;;;;11.57;8.23;;;9.40;91.10;;;;;;5018226;28;20454;-90
2021/04/29 14:11:54;;;;;;;10.82;7.93;;;9.40;90.90;;;;;;4985044;28;20136;-89
2021/04/29 14:14:20;;;;;;;13.18;7.85;;;9.40;90.60;;;;;;5000661;28;20120;-91
2021/04/29 14:16:46;;;;;;;11.38;7.75;;;9.40;90.80;;;;;;4984002;28;20119;-90
2021/04/29 14:19:16;;;;;;;11.75;7.85;;;9.40;90.60;;;;;;5001025;28;20084;-90
2021/04/29 14:25:15;;;;;;;12.88;7.85;;;9.30;90.80;;;;;;5038599;28;20076;-90
2021/04/29 14:35:31;;;;;;;12.38;7.25;;;9.30;90.70;;;;;;5013367;28;20631;-89
2021/04/29 14:38:02;;;;;;;11.65;7.03;;;9.30;90.60;;;;;;4983435;28;20034;-90
2021/04/29 14:47:54;;;;;;;12.45;7.03;;;9.20;92.80;;;;;;5016976;28;20036;-89
2021/04/29 14:50:20;;;;;;;12.55;7.28;;;9.20;91.60;;;;;;4998655;28;20033;-89
2021/04/29 14:52:47;;;;;;;10.27;6.45;;;9.20;91.30;;;;;;5005092;28;20014;-88
2021/04/29 14:55:13;;;;;;;11.05;6.20;;;9.20;91.20;;;;;;4999418;28;20077;-88
2021/04/29 14:57:47;;;;;;;13.57;6.25;;;9.10;90.90;;;;;;4999476;28;20030;-88
2021/04/29 15:00:13;;;;;;;8.75;5.82;;;9.10;90.60;;;;;;4998990;28;20038;-89
2021/04/29 15:02:43;;;;;;;12.93;6.22;;;9.10;90.60;;;;;;4991483;28;20478;-90
2021/04/29 15:05:09;;;;;;;9.18;6.20;;;9.10;90.30;;;;;;4999547;28;20108;-90
2021/04/29 15:07:55;;;;;;;11.40;7.07;;;9.00;90.40;;;;;;5000223;28;20045;-90
2021/04/29 15:17:29;;;;;;;13.00;6.97;;;9.00;90.30;;;;;;5016730;28;20032;-89
2021/04/29 16:13:01;;;;;;;13.15;7.72;;;8.70;92.30;;;;;;5006079;28;20285;-90
2021/04/29 16:19:17;;;;;;;12.65;7.93;;;8.70;92.70;;;;;;4996942;28;20104;-89
2021/04/29 16:21:43;;;;;;;12.73;8.20;;;8.70;92.70;;;;;;4961833;28;20085;-89
2021/04/29 16:24:11;;;;;;;12.35;8.52;;;8.60;92.70;;;;;;4962486;28;20505;-89
2021/04/29 16:26:37;;;;;;;12.57;8.38;;;8.60;92.70;;;;;;4978433;28;20018;-88
2021/04/29 16:29:03;;;;;;;11.93;8.68;;;8.60;92.90;;;;;;4978134;28;20018;-88
2021/04/29 16:31:29;;;;;;;11.65;7.75;;;8.60;92.90;;;;;;4978275;28;20174;-89
2021/04/29 16:33:54;;;;;;;11.13;7.95;;;8.50;92.80;;;;;;4995264;28;20065;-89
2021/04/29 16:36:20;;;;;;;11.00;8.20;;;8.60;93.10;;;;;;4966858;28;20038;-89
2021/04/29 16:38:51;;;;;;;10.50;7.65;;;8.60;93.10;;;;;;4966349;28;20037;-89
2021/04/29 16:41:16;;;;;;;14.77;8.75;;;8.50;93.20;;;;;;4977713;28;20030;-88
2021/04/29 16:43:48;;;;;;;13.93;8.80;;;8.60;93.30;;;;;;4994450;28;20089;-89
2021/04/29 16:46:14;;;;;;;12.93;8.00;;;8.60;93.40;;;;;;4975709;28;20474;-90
2021/04/29 16:48:40;;;;;;;14.13;8.57;;;8.60;93.60;;;;;;4984274;28;20054;-90
2021/04/29 16:51:08;;;;;;;14.82;9.35;;;8.60;93.70;;;;;;4999594;28;20501;-89
2021/04/29 16:53:34;;;;;;;15.82;9.40;;;8.60;93.80;;;;;;4982823;28;20144;-89
2021/04/29 16:56:00;;;;;;;14.00;9.73;;;8.60;93.90;;;;;;5007964;28;20053;-88
2021/04/29 16:58:25;;;;;;;14.95;9.80;;;8.60;93.90;;;;;;4981174;28;20046;-89
2021/04/29 17:00:51;;;;;;;11.57;8.98;;;8.60;93.70;;;;;;4976788;28;20503;-89
2021/04/29 17:03:17;;;;;;;14.50;10.18;;;8.60;94.00;;;;;;5001699;28;20129;-88
2021/04/29 17:05:42;;;;;;;12.98;9.20;;;8.60;93.90;;;;;;4995892;28;20025;-89
2021/04/29 17:08:08;;;;;;;13.15;8.80;;;8.60;93.90;;;;;;4995625;28;20036;-89
2021/04/29 17:10:36;;;;;;;13.30;9.65;;;8.60;94.00;;;;;;4995919;28;20037;-88
2021/04/29 17:13:02;;;;;;;14.77;9.93;;;8.60;94.00;;;;;;4980208;28;20042;-89
2021/04/29 17:15:28;;;;;;;11.40;9.63;;;8.60;94.00;;;;;;4995826;28;20014;-90
2021/04/29 17:17:54;;;;;;;13.18;9.73;;;8.60;94.10;;;;;;4994594;28;20037;-88
2021/04/29 17:20:24;;;;;;;14.75;10.88;;;8.60;94.10;;;;;;5012817;28;20050;-88
2021/04/29 17:22:55;;;;;;;14.38;9.98;;;8.50;94.20;;;;;;4982406;28;20478;-89
2021/04/29 17:25:24;;;;;;;13.55;10.05;;;8.60;94.10;;;;;;4995955;28;20030;-90
2021/04/29 17:27:50;;;;;;;12.68;9.70;;;8.50;94.30;;;;;;4995631;28;20053;-89
2021/04/29 17:30:17;;;;;;;12.85;9.63;;;8.60;94.30;;;;;;4995273;28;20029;-89
2021/04/29 17:32:44;;;;;;;14.90;10.07;;;8.60;94.20;;;;;;4995789;28;20041;-88
2021/04/29 17:35:11;;;;;;;14.32;10.15;;;8.60;94.30;;;;;;4995738;28;20125;-89
2021/04/29 17:37:40;;;;;;;15.68;11.40;;;8.60;94.50;;;;;;4995397;28;20398;-89
2021/04/29 17:40:09;;;;;;;14.02;11.10;;;8.60;94.40;;;;;;5027128;28;20098;-89
2021/04/29 17:42:35;;;;;;;15.82;10.95;;;8.60;94.50;;;;;;4996015;28;20026;-88
2021/04/29 17:45:01;;;;;;;16.77;10.98;;;8.60;94.60;;;;;;4992828;28;20064;-90
2021/04/29 17:47:29;;;;;;;14.32;11.35;;;8.60;94.50;;;;;;4964668;28;20069;-89
2021/04/29 17:49:55;;;;;;;14.73;11.18;;;8.60;94.60;;;;;;4976411;28;20030;-89
2021/04/29 17:52:20;;;;;;;16.80;11.80;;;8.60;94.50;;;;;;5003049;28;20028;-90
2021/04/29 17:54:46;;;;;;;16.27;11.82;;;8.60;94.70;;;;;;4997238;28;20034;-88
2021/04/29 17:57:16;;;;;;;15.05;11.35;;;8.60;94.70;;;;;;4978810;28;20467;-90
2021/04/29 17:59:46;;;;;;;14.48;10.98;;;8.60;94.60;;;;;;4974304;28;20031;-88
2021/04/29 18:02:14;;;;;;;15.98;11.38;;;8.60;94.70;;;;;;4978064;28;20470;-91
2021/04/29 18:04:52;;;;;;;15.27;11.55;;;8.60;94.70;;;;;;4979493;28;20181;-90
2021/04/29 18:07:17;;;;;;;15.75;11.50;;;8.60;95.00;;;;;;5005378;28;20125;-89
2021/04/29 18:09:43;;;;;;;17.50;12.23;;;8.60;95.00;;;;;;4995915;28;20121;-90
2021/04/29 18:12:12;;;;;;;18.23;12.18;;;8.60;95.00;;;;;;4967806;28;20045;-90
2021/04/29 18:14:38;;;;;;;17.73;12.50;;;8.50;95.00;;;;;;4996568;28;20037;-90
2021/04/29 18:17:03;;;;;;;17.83;13.00;;;8.60;95.00;;;;;;5000408;28;20014;-91
2021/04/29 18:19:29;;;;;;;16.75;12.00;;;8.60;95.10;;;;;;4999609;28;20026;-89
2021/04/29 18:21:55;;;;;;;15.27;11.85;;;8.60;95.10;;;;;;5014155;28;20034;-91
2021/04/29 18:24:21;;;;;;;17.10;12.82;;;8.60;95.10;;;;;;5006147;28;20065;-93
2021/04/29 18:26:47;;;;;;;17.80;13.15;;;8.60;95.10;;;;;;4992432;28;20022;-90
2021/04/29 18:29:15;;;;;;;21.00;13.63;;;8.60;95.20;;;;;;5008647;28;20022;-90
2021/04/29 18:31:41;;;;;;;16.10;12.70;;;8.60;95.20;;;;;;4994624;28;20040;-90
2021/04/29 18:34:07;;;;;;;18.17;14.20;;;8.60;95.10;;;;;;4999852;28;20030;-90
2021/04/29 18:36:40;;;;;;;18.15;12.82;;;8.60;95.20;;;;;;5016772;28;20037;-89
2021/04/29 18:39:18;;;;;;;;;;;;;;;;;;;;;
2021/04/29 18:41:47;;;;;;;23.40;13.73;;;8.60;95.40;;;;;;5016788;28;20021;-90
2021/04/29 18:44:16;;;;;;;19.20;14.32;;;8.60;95.30;;;;;;4999203;28;20105;-89
2021/04/29 18:46:42;;;;;;;18.55;13.10;;;8.60;95.30;;;;;;4996689;28;20036;-93
2021/04/29 18:49:26;;;;;;;;;;;;;;;;;;;;;
2021/04/29 18:52:04;;;;;;;19.05;13.68;;;8.60;95.40;;;;;;5006937;28;20090;-93
2021/04/29 18:54:47;;;;;;;;;;;;;;;;;;;;;
2021/04/29 18:57:21;;;;;;;19.20;13.20;;;8.60;95.50;;;;;;4980371;28;20038;-94
2021/04/29 19:00:05;;;;;;;19.10;13.57;;;8.60;95.60;;;;;;4982792;28;20076;-92
2021/04/29 19:02:31;;;;;;;20.23;14.60;;;8.60;95.80;;;;;;4968370;28;20037;-93
2021/04/29 19:04:59;;;;;;;20.27;12.85;;;8.60;95.70;;;;;;4978120;28;20026;-92
2021/04/29 19:07:27;;;;;;;21.48;14.18;;;8.60;95.60;;;;;;4980122;28;20133;-89
2021/04/29 19:10:05;;;;;;;;;;;;;;;;;;;;;
2021/04/29 19:12:35;;;;;;;17.75;13.98;;;8.60;95.50;;;;;;4996195;28;20030;-88
2021/04/29 19:15:01;;;;;;;19.55;13.55;;;8.60;95.70;;;;;;4979614;28;20514;-88
2021/04/29 19:17:27;;;;;;;20.45;13.60;;;8.50;95.70;;;;;;4959389;28;20027;-87
2021/04/29 19:19:54;;;;;;;21.55;13.90;;;8.60;95.60;;;;;;4978160;28;20029;-88
2021/04/29 19:22:22;;;;;;;19.55;13.65;;;8.50;95.60;;;;;;4994012;28;20043;-87
2021/04/29 19:24:56;;;;;;;21.48;12.80;;;8.50;95.70;;;;;;4961319;28;20042;-87
2021/04/29 19:27:21;;;;;;;19.50;13.05;;;8.50;95.80;;;;;;4969663;28;20463;-88
2021/04/29 19:29:50;;;;;;;19.80;13.88;;;8.50;95.80;;;;;;4979525;28;20080;-89
2021/04/29 19:36:15;;;;;;;18.73;12.88;;;8.50;95.70;;;;;;4998097;28;20033;-90
2021/04/29 19:38:41;;;;;;;20.05;13.05;;;8.50;95.70;;;;;;4997931;28;20045;-89
2021/04/29 19:41:09;;;;;;;21.58;12.98;;;8.50;96.10;;;;;;4962809;28;20403;-91
2021/04/29 19:43:35;;;;;;;17.27;12.07;;;8.40;96.00;;;;;;4980392;28;20102;-90
2021/04/29 19:49:37;;;;;;;20.33;11.05;;;8.30;95.80;;;;;;5006871;28;20064;-90
2021/04/29 19:52:10;;;;;;;18.83;11.25;;;8.30;95.70;;;;;;5005697;28;20030;-90
2021/04/29 19:54:41;;;;;;;18.73;10.88;;;8.30;95.80;;;;;;5003099;28;20022;-91
2021/04/29 19:57:23;;;;;;;;;;;;;;;;;;;;;
2021/04/29 19:59:54;;;;;;;20.70;11.13;;;8.20;95.80;;;;;;5023618;28;20077;-90
2021/04/29 20:02:20;;;;;;;;;;;8.20;95.80;;;;;;5007459;28;20037;-91
2021/04/29 20:04:48;;;;;;;22.10;11.95;;;8.10;95.90;;;;;;5004860;28;19933;-89
2021/04/29 20:07:22;;;;;;;21.70;10.95;;;8.10;96.10;;;;;;5002341;28;20030;-88
2021/04/29 20:13:15;;;;;;;22.50;10.90;;;8.10;96.10;;;;;;5018525;28;20072;-89
2021/04/29 20:15:43;;;;;;;;;;;8.10;96.10;;;;;;5000649;28;20132;-89